createdAt,value
2022-12-06T00:04:55.389Z,97551.44
2022-12-06T00:09:59.161Z,97588.06
2022-12-06T00:15:02.683Z,97593.97
2022-12-06T00:20:07.704Z,97602.56
2022-12-06T00:25:11.297Z,97562.19
2022-12-06T00:30:14.980Z,97587.88
2022-12-06T00:35:18.420Z,97601.53
2022-12-06T00:40:21.849Z,97586.00
2022-12-06T00:45:25.277Z,97533.09
2022-12-06T00:50:28.758Z,97601.31
2022-12-06T00:55:32.139Z,97600.69
2022-12-06T01:00:35.539Z,97607.28
2022-12-06T01:05:43.743Z,97509.13
2022-12-06T01:10:54.962Z,97603.09
2022-12-06T01:16:08.743Z,97593.69
2022-12-06T01:21:15.489Z,97589.81
2022-12-06T01:26:22.354Z,97577.94
2022-12-06T01:31:30.709Z,97489.72
2022-12-06T01:36:37.351Z,97604.91
2022-12-06T01:41:41.413Z,97611.16
2022-12-06T01:46:46.274Z,97540.13
2022-12-06T01:51:57.784Z,97598.59
2022-12-06T01:57:03.393Z,97480.47
2022-12-06T02:02:14.850Z,97520.56
2022-12-06T02:07:18.551Z,97516.41
2022-12-06T02:12:22.687Z,97586.78
2022-12-06T02:17:36.544Z,97593.56
2022-12-06T02:22:58.735Z,97595.84
2022-12-06T02:28:24.686Z,97506.03
2022-12-06T02:33:35.461Z,97575.78
2022-12-06T02:38:46.906Z,97575.00
2022-12-06T02:43:59.512Z,97549.56
2022-12-06T02:49:04.698Z,97456.31
2022-12-06T02:54:11.107Z,97567.06
2022-12-06T02:59:14.687Z,97512.00
2022-12-06T03:04:50.566Z,97529.41
2022-12-06T03:10:12.200Z,97556.81
2022-12-06T03:15:36.357Z,97521.78
2022-12-06T03:20:52.892Z,97522.09
2022-12-06T03:25:59.503Z,97537.00
2022-12-06T03:31:06.844Z,97548.75
2022-12-06T03:36:13.693Z,97480.59
2022-12-06T03:41:20.131Z,97509.56
2022-12-06T03:46:34.964Z,97547.81
2022-12-06T03:51:41.357Z,97512.66
2022-12-06T03:56:54.799Z,97533.31
2022-12-06T04:01:58.448Z,97561.06
2022-12-06T04:07:01.896Z,97545.38
2022-12-06T04:12:25.594Z,97501.38
2022-12-06T04:17:47.421Z,97517.66
2022-12-06T04:23:06.143Z,97550.69
2022-12-06T04:28:28.219Z,97530.41
2022-12-06T04:33:50.294Z,97564.97
2022-12-06T04:39:04.250Z,97548.78
2022-12-06T04:44:08.734Z,97566.91
2022-12-06T04:49:12.304Z,97551.75
2022-12-06T04:54:15.724Z,97589.38
2022-12-06T04:59:19.550Z,97513.97
2022-12-06T05:04:29.222Z,97567.19
2022-12-06T05:09:34.008Z,97569.56
2022-12-06T05:14:37.632Z,97540.16
2022-12-06T05:19:41.024Z,97567.56
2022-12-06T05:24:44.473Z,97578.09
2022-12-06T05:29:47.991Z,97591.03
2022-12-06T05:34:51.782Z,97576.06
2022-12-06T05:39:55.211Z,97513.97
2022-12-06T05:44:58.628Z,97552.22
2022-12-06T05:50:02.553Z,97504.88
2022-12-06T05:55:06.326Z,97557.94
2022-12-06T06:00:10.748Z,97552.06
2022-12-06T06:05:15.410Z,97573.19
2022-12-06T06:10:19.099Z,97594.88
2022-12-06T06:15:22.467Z,97583.31
2022-12-06T06:20:25.892Z,97564.81
2022-12-06T06:25:29.702Z,97522.47
2022-12-06T06:30:33.705Z,97569.66
2022-12-06T06:35:37.777Z,97587.81
2022-12-06T06:40:41.228Z,97582.69
2022-12-06T06:45:55.613Z,97598.63
2022-12-06T06:51:08.127Z,97599.25
2022-12-06T06:56:11.996Z,97553.63
2022-12-06T07:01:19.363Z,97607.69
2022-12-06T07:06:23.268Z,97565.31
2022-12-06T07:11:26.759Z,97596.22
2022-12-06T07:16:30.554Z,97611.44
2022-12-06T07:21:33.985Z,97524.38
2022-12-06T07:26:38.019Z,97624.50
2022-12-06T07:31:41.835Z,97575.06
2022-12-06T07:36:49.833Z,97579.72
2022-12-06T07:42:12.416Z,97516.59
2022-12-06T07:47:16.517Z,97596.72
2022-12-06T07:52:21.340Z,97565.56
2022-12-06T07:57:24.853Z,97606.13
2022-12-06T08:02:29.529Z,97465.31
2022-12-06T08:07:33.196Z,97581.63
2022-12-06T08:12:37.636Z,97609.69
2022-12-06T08:17:41.732Z,97600.34
2022-12-06T08:22:46.604Z,97553.44
2022-12-06T08:27:50.039Z,97560.28
2022-12-06T08:33:01.250Z,97638.47
2022-12-06T08:38:04.711Z,97628.03
2022-12-06T08:43:17.980Z,97612.53
2022-12-06T08:48:22.191Z,97606.44
2022-12-06T08:53:25.624Z,97630.34
2022-12-06T08:58:29.313Z,97639.88
2022-12-06T09:03:32.675Z,97569.59
2022-12-06T09:08:37.384Z,97448.06
2022-12-06T09:13:41.788Z,97608.94
2022-12-06T09:18:46.087Z,97605.56
2022-12-06T09:23:50.743Z,97529.41
2022-12-06T09:28:55.800Z,97601.06
2022-12-06T09:33:59.143Z,97595.41
2022-12-06T09:39:25.607Z,97589.28
2022-12-06T09:44:36.246Z,97489.06
2022-12-06T09:49:51.615Z,97568.03
2022-12-06T09:55:13.366Z,97565.00
2022-12-06T10:00:22.983Z,97566.09
2022-12-06T10:05:58.892Z,97560.38
2022-12-06T10:11:29.332Z,97546.75
2022-12-06T10:16:57.231Z,97555.88
2022-12-06T10:22:19.115Z,97555.19
2022-12-06T10:28:00.485Z,97544.00
2022-12-06T10:33:15.028Z,97519.69
2022-12-06T10:38:21.235Z,97545.22
2022-12-06T10:43:26.657Z,97479.13
2022-12-06T10:48:42.389Z,97524.56
2022-12-06T10:53:54.005Z,97466.88
2022-12-06T10:59:04.070Z,97320.47
2022-12-06T11:04:37.882Z,97495.03
2022-12-06T11:09:44.939Z,97500.06
2022-12-06T11:14:53.505Z,97504.81
2022-12-06T11:20:16.569Z,97498.19
2022-12-06T11:25:53.890Z,97488.34
2022-12-06T11:30:58.381Z,97318.84
2022-12-06T11:36:12.027Z,97430.47
2022-12-06T11:41:23.180Z,97412.47
2022-12-06T11:46:27.795Z,97423.06
2022-12-06T11:51:32.062Z,97422.34
2022-12-06T11:56:38.392Z,97469.78
2022-12-06T12:01:55.071Z,97468.94
2022-12-06T12:07:10.247Z,97399.53
2022-12-06T12:13:15.612Z,97425.41
2022-12-06T12:18:26.267Z,97458.69
2022-12-06T12:23:37.977Z,97448.56
2022-12-06T12:28:43.631Z,97409.81
2022-12-06T12:33:47.340Z,97436.16
2022-12-06T12:38:56.642Z,97442.56
2022-12-06T12:49:31.762Z,97432.50
2022-12-06T12:54:39.959Z,97401.69
2022-12-06T12:59:46.249Z,97418.66
2022-12-06T13:05:32.522Z,97424.84
2022-12-06T13:10:39.992Z,97398.03
2022-12-06T13:15:48.095Z,97425.03
2022-12-06T13:20:54.321Z,97432.81
2022-12-06T13:26:03.583Z,97425.31
2022-12-06T13:31:14.881Z,97433.50
2022-12-06T13:36:20.214Z,97205.88
2022-12-06T13:41:54.776Z,97424.38
2022-12-06T13:47:27.183Z,97352.28
2022-12-06T13:52:42.769Z,97431.91
2022-12-06T13:57:47.688Z,97398.66
2022-12-06T14:02:51.216Z,97427.16
2022-12-06T14:07:58.868Z,97429.69
2022-12-06T14:13:02.447Z,97399.03
2022-12-06T14:18:24.705Z,97435.00
2022-12-06T14:23:41.706Z,97360.97
2022-12-06T14:28:47.794Z,97369.84
2022-12-06T14:33:52.062Z,97249.19
2022-12-06T14:39:04.631Z,97243.91
2022-12-06T14:44:17.216Z,97436.50
2022-12-06T14:49:40.920Z,97390.84
2022-12-06T14:54:45.794Z,97446.66
2022-12-06T15:05:42.616Z,97452.91
2022-12-06T15:11:07.183Z,97453.34
2022-12-06T15:16:11.138Z,97441.41
2022-12-06T15:21:17.215Z,97417.31
2022-12-06T15:26:22.269Z,97444.69
2022-12-06T15:31:30.713Z,97448.50
2022-12-06T15:36:35.839Z,97444.75
2022-12-06T15:41:39.980Z,97362.81
2022-12-06T15:46:43.903Z,97365.19
2022-12-06T15:51:48.096Z,97214.31
2022-12-06T15:56:52.585Z,97436.91
2022-12-06T16:01:56.288Z,97293.69
2022-12-06T16:06:59.727Z,97366.69
2022-12-06T16:12:03.418Z,97368.16
2022-12-06T16:17:06.790Z,97246.03
2022-12-06T16:22:10.323Z,97435.59
2022-12-06T16:27:13.731Z,97358.72
2022-12-06T16:32:17.412Z,97258.38
2022-12-06T16:37:20.963Z,97452.34
2022-12-06T16:42:27.319Z,97451.44
2022-12-06T16:52:32.698Z,97447.66
2022-12-06T16:57:36.169Z,97282.44
2022-12-06T17:02:41.382Z,97436.88
2022-12-06T17:07:45.177Z,97425.44
2022-12-06T17:12:49.640Z,97420.53
2022-12-06T17:17:53.316Z,97443.44
2022-12-06T17:22:57.993Z,97407.56
2022-12-06T17:28:01.647Z,97439.25
2022-12-06T17:33:05.008Z,97365.16
2022-12-06T17:38:08.692Z,97401.53
2022-12-06T17:43:12.279Z,97375.56
2022-12-06T17:48:15.678Z,97433.13
2022-12-06T17:53:19.421Z,97324.22
2022-12-06T17:58:22.912Z,97178.69
2022-12-06T18:03:26.997Z,97353.25
2022-12-06T18:08:30.564Z,97213.75
2022-12-06T18:13:34.776Z,97433.63
2022-12-06T18:18:39.508Z,97232.25
2022-12-06T18:24:05.414Z,97438.81
2022-12-06T18:29:08.558Z,97280.19
2022-12-06T18:34:12.979Z,97450.94
2022-12-06T18:39:25.175Z,97450.25
2022-12-06T18:44:28.766Z,97386.00
2022-12-06T18:49:32.217Z,97461.78
2022-12-06T18:54:51.662Z,97403.84
2022-12-06T18:59:55.178Z,97170.41
2022-12-06T19:04:58.795Z,97323.81
2022-12-06T19:10:03.279Z,97277.78
2022-12-06T19:15:07.686Z,97389.22
2022-12-06T19:20:11.381Z,97428.28
2022-12-06T19:25:24.763Z,97302.31
2022-12-06T19:30:28.300Z,97251.34
2022-12-06T19:35:31.752Z,97201.03
2022-12-06T19:40:35.268Z,97355.94
2022-12-06T19:45:38.942Z,97378.28
2022-12-06T19:50:42.471Z,97209.81
2022-12-06T19:55:47.053Z,97325.53
2022-12-06T20:00:52.196Z,97400.59
2022-12-06T20:06:03.368Z,97419.69
2022-12-06T20:11:29.459Z,97386.66
2022-12-06T20:16:33.999Z,97260.41
2022-12-06T20:21:37.823Z,97398.66
2022-12-06T20:26:42.422Z,97165.56
2022-12-06T20:31:46.664Z,97254.28
2022-12-06T20:36:51.836Z,97383.91
2022-12-06T20:41:55.666Z,97289.22
2022-12-06T20:47:05.686Z,97316.47
2022-12-06T20:52:09.210Z,97310.47
2022-12-06T20:57:12.702Z,97282.94
2022-12-06T21:02:16.408Z,97391.28
2022-12-06T21:07:20.302Z,97368.19
2022-12-06T21:12:24.551Z,97285.78
2022-12-06T21:17:37.351Z,97392.81
2022-12-06T21:22:40.759Z,97176.38
2022-12-06T21:27:44.895Z,97323.81
2022-12-06T21:32:48.327Z,97329.72
2022-12-06T21:37:51.924Z,97178.25
2022-12-06T21:42:55.564Z,97201.53
2022-12-06T21:47:59.136Z,97109.94
2022-12-06T21:53:03.765Z,97294.56
2022-12-06T21:58:07.339Z,97299.06
2022-12-06T22:03:10.786Z,97324.47
2022-12-06T22:08:14.604Z,97232.25
2022-12-06T22:13:18.182Z,97133.28
2022-12-06T22:18:21.613Z,97293.97
2022-12-06T22:23:25.432Z,97378.63
2022-12-06T22:28:29.067Z,97342.91
2022-12-06T22:33:33.291Z,97349.69
2022-12-06T22:38:37.115Z,97162.09
2022-12-06T22:43:40.544Z,97335.34
2022-12-06T22:48:45.336Z,97385.59
2022-12-06T22:53:53.735Z,97298.19
2022-12-06T22:58:59.795Z,97290.91
2022-12-06T23:04:05.999Z,97293.34
2022-12-06T23:09:15.370Z,97390.41
2022-12-06T23:14:19.479Z,97359.19
2022-12-06T23:19:23.137Z,97313.94
2022-12-06T23:24:26.739Z,97256.28
2022-12-06T23:29:30.326Z,97359.03
2022-12-06T23:34:34.458Z,97272.69
2022-12-06T23:39:37.875Z,97162.47
2022-12-06T23:44:41.446Z,97292.28
2022-12-06T23:49:45.094Z,97345.66
2022-12-06T23:54:48.464Z,97346.44
2022-12-06T23:59:51.858Z,97325.06
